Time;durP1;ratioP1;P1;durP2;ratioP2;P2;SDS_P1;SDS_P2;PMS_P1;PMS_P2;Temp;Humidity;BMP_temperature;BMP_pressure;BME280_temperature;BME280_humidity;BME280_pressure;Samples;Min_cycle;Max_cycle;Signal;HPM_P1;HPM_P2
2022/09/28 00:00:46;;;;;;;2.92;2.70;;;;;;;;;;4978744;28;20034;-63
2022/09/28 00:03:13;;;;;;;1.98;1.75;;;;;;;;;;4996096;28;20030;-64
2022/09/28 00:05:40;;;;;;;2.60;2.30;;;;;;;;;;4996195;28;20028;-64
2022/09/28 00:08:07;;;;;;;2.75;2.28;;;;;;;;;;4996363;28;20022;-64
2022/09/28 00:10:34;;;;;;;2.33;2.10;;;;;;;;;;4996411;28;20030;-64
2022/09/28 00:13:02;;;;;;;1.80;1.67;;;;;;;;;;4996053;28;20030;-64
2022/09/28 00:15:29;;;;;;;2.35;2.15;;;;;;;;;;4996128;28;20101;-64
2022/09/28 00:17:56;;;;;;;2.47;2.20;;;;;;;;;;4995622;28;20156;-63
2022/09/28 00:20:23;;;;;;;1.83;1.73;;;;;;;;;;4995955;28;20434;-64
2022/09/28 00:22:50;;;;;;;2.63;1.80;;;;;;;;;;4994752;28;20022;-64
2022/09/28 00:25:20;;;;;;;3.13;2.20;;;;;;;;;;4995102;28;20030;-64
2022/09/28 00:27:51;;;;;;;2.88;1.73;;;;;;;;;;4996077;28;20029;-64
2022/09/28 00:30:18;;;;;;;2.13;1.85;;;;;;;;;;4995637;28;20019;-64
2022/09/28 00:32:45;;;;;;;1.98;1.77;;;;;;;;;;4995882;28;20089;-64
2022/09/28 00:35:12;;;;;;;1.65;1.50;;;;;;;;;;4995686;28;20018;-64
2022/09/28 00:37:39;;;;;;;3.58;2.17;;;;;;;;;;4994616;28;20030;-64
2022/09/28 00:40:07;;;;;;;1.98;1.73;;;;;;;;;;4994817;28;20116;-64
2022/09/28 00:42:34;;;;;;;1.85;1.60;;;;;;;;;;4993988;28;20072;-64
2022/09/28 00:45:01;;;;;;;1.58;1.48;;;;;;;;;;4995585;28;20029;-64
2022/09/28 00:47:44;;;;;;;2.17;1.60;;;;;;;;;;4995709;28;20466;-63
2022/09/28 00:50:14;;;;;;;1.90;1.65;;;;;;;;;;4995321;28;20044;-63
2022/09/28 00:52:45;;;;;;;3.08;1.75;;;;;;;;;;4977942;28;20483;-64
2022/09/28 00:55:15;;;;;;;2.00;1.80;;;;;;;;;;4995339;28;20029;-64
2022/09/28 00:57:44;;;;;;;2.07;1.50;;;;;;;;;;4995518;28;20110;-64
2022/09/28 01:00:12;;;;;;;3.05;2.40;;;;;;;;;;4995189;28;20072;-63
2022/09/28 01:02:40;;;;;;;2.30;1.50;;;;;;;;;;4994891;28;20050;-63
2022/09/28 01:05:09;;;;;;;1.48;1.23;;;;;;;;;;4993774;28;20026;-64
2022/09/28 01:07:36;;;;;;;2.25;1.50;;;;;;;;;;4995277;28;20098;-64
2022/09/28 01:10:04;;;;;;;1.40;1.30;;;;;;;;;;4995067;28;20034;-64
2022/09/28 01:12:31;;;;;;;2.88;1.50;;;;;;;;;;4977618;28;20518;-64
2022/09/28 01:14:59;;;;;;;2.08;1.50;;;;;;;;;;4994953;28;20371;-64
2022/09/28 01:17:31;;;;;;;2.08;1.33;;;;;;;;;;4994648;28;20022;-64
2022/09/28 01:20:04;;;;;;;2.65;1.52;;;;;;;;;;4994876;28;20545;-64
2022/09/28 01:22:34;;;;;;;2.35;1.30;;;;;;;;;;4994987;28;20029;-64
2022/09/28 01:25:01;;;;;;;2.22;1.25;;;;;;;;;;4994722;28;20040;-64
2022/09/28 01:27:33;;;;;;;2.05;1.08;;;;;;;;;;4994732;28;20078;-63
2022/09/28 01:30:03;;;;;;;1.42;1.20;;;;;;;;;;4994637;28;20187;-64
2022/09/28 01:32:48;;;;;;;1.20;1.10;;;;;;;;;;4994620;28;20018;-64
2022/09/28 01:35:27;;;;;;;1.10;1.00;;;;;;;;;;4994560;28;20073;-63
2022/09/28 01:38:02;;;;;;;1.30;1.00;;;;;;;;;;4994773;28;20102;-63
2022/09/28 01:40:30;;;;;;;2.45;1.00;;;;;;;;;;4994728;28;20379;-64
2022/09/28 01:43:08;;;;;;;1.20;0.93;;;;;;;;;;4994372;28;20022;-63
2022/09/28 01:45:46;;;;;;;2.58;1.20;;;;;;;;;;4994374;28;20081;-63
2022/09/28 01:48:16;;;;;;;1.75;1.25;;;;;;;;;;4994494;28;20537;-63
2022/09/28 01:50:45;;;;;;;1.95;1.50;;;;;;;;;;4994231;28;20023;-63
2022/09/28 01:53:30;;;;;;;1.50;1.10;;;;;;;;;;4994472;28;20026;-64
2022/09/28 01:56:01;;;;;;;2.30;1.00;;;;;;;;;;4994465;28;20364;-63
2022/09/28 01:58:32;;;;;;;1.17;0.80;;;;;;;;;;4994077;28;20050;-64
2022/09/28 02:01:05;;;;;;;2.72;1.50;;;;;;;;;;4976588;28;20430;-63
2022/09/28 02:03:37;;;;;;;2.03;1.08;;;;;;;;;;4994257;28;20045;-64
2022/09/28 02:06:08;;;;;;;1.00;0.90;;;;;;;;;;4994120;28;20114;-64
2022/09/28 02:08:41;;;;;;;1.20;0.93;;;;;;;;;;4994039;28;20022;-64
2022/09/28 02:11:15;;;;;;;2.53;0.93;;;;;;;;;;4994038;28;20472;-65
2022/09/28 02:14:08;;;;;;;1.40;0.85;;;;;;;;;;4993948;28;20510;-63
2022/09/28 02:16:35;;;;;;;0.98;0.77;;;;;;;;;;4989055;28;20038;-64
2022/09/28 02:19:03;;;;;;;2.03;0.80;;;;;;;;;;4993649;28;20054;-64
2022/09/28 02:21:32;;;;;;;1.50;0.90;;;;;;;;;;4993767;28;20026;-64
2022/09/28 02:24:04;;;;;;;0.80;0.70;;;;;;;;;;4976321;28;20030;-64
2022/09/28 02:26:34;;;;;;;1.33;0.85;;;;;;;;;;4976047;28;20113;-65
2022/09/28 02:29:01;;;;;;;1.88;0.80;;;;;;;;;;4993788;28;20018;-65
2022/09/28 02:31:28;;;;;;;2.33;0.77;;;;;;;;;;4993584;28;20034;-64
2022/09/28 02:33:57;;;;;;;2.75;0.90;;;;;;;;;;4993692;28;20033;-64
2022/09/28 02:36:25;;;;;;;1.00;0.70;;;;;;;;;;4993494;28;20117;-66
2022/09/28 02:38:52;;;;;;;1.00;0.55;;;;;;;;;;4993671;28;20037;-65
2022/09/28 02:41:42;;;;;;;2.80;0.50;;;;;;;;;;4993466;28;20509;-66
2022/09/28 02:44:27;;;;;;;1.33;0.50;;;;;;;;;;4981432;28;20027;-66
2022/09/28 02:47:03;;;;;;;0.47;0.45;;;;;;;;;;4993648;28;20044;-66
2022/09/28 02:49:57;;;;;;;1.10;0.80;;;;;;;;;;4993639;28;20031;-66
2022/09/28 02:52:24;;;;;;;4.40;1.20;;;;;;;;;;4989480;28;20038;-66
2022/09/28 02:55:09;;;;;;;4.65;1.52;;;;;;;;;;4993524;28;20022;-66
2022/09/28 02:57:47;;;;;;;2.50;1.20;;;;;;;;;;4993454;28;20080;-66
2022/09/28 03:00:21;;;;;;;10.52;2.55;;;;;;;;;;4993372;28;20394;-66
2022/09/28 03:03:01;;;;;;;2.90;1.52;;;;;;;;;;4993469;28;20363;-66
2022/09/28 03:05:46;;;;;;;4.43;1.63;;;;;;;;;;4993449;28;20018;-66
2022/09/28 03:08:34;;;;;;;2.40;1.10;;;;;;;;;;4993339;28;20096;-66
2022/09/28 03:11:07;;;;;;;4.05;1.45;;;;;;;;;;4993659;28;20025;-66
2022/09/28 03:13:35;;;;;;;3.42;1.38;;;;;;;;;;4993477;28;20030;-66
2022/09/28 03:16:11;;;;;;;3.45;1.27;;;;;;;;;;4993347;28;20102;-64
2022/09/28 03:18:38;;;;;;;3.03;1.20;;;;;;;;;;4992979;28;20042;-65
2022/09/28 03:21:05;;;;;;;4.45;1.60;;;;;;;;;;4993347;28;20030;-64
2022/09/28 03:23:33;;;;;;;1.52;1.13;;;;;;;;;;4993389;28;20101;-64
2022/09/28 03:26:00;;;;;;;3.88;1.50;;;;;;;;;;4993154;28;20501;-63
2022/09/28 03:28:28;;;;;;;3.08;1.40;;;;;;;;;;4996409;28;20025;-64
2022/09/28 03:30:56;;;;;;;3.05;1.65;;;;;;;;;;4996797;28;20027;-64
2022/09/28 03:33:23;;;;;;;5.15;1.83;;;;;;;;;;4996706;28;20046;-64
2022/09/28 03:35:50;;;;;;;6.13;2.00;;;;;;;;;;4996911;28;20027;-64
2022/09/28 03:38:18;;;;;;;8.80;2.20;;;;;;;;;;4996915;28;20037;-63
2022/09/28 03:40:55;;;;;;;7.72;2.22;;;;;;;;;;4996736;28;20030;-63
2022/09/28 03:43:23;;;;;;;7.93;2.10;;;;;;;;;;4996668;28;20048;-63
2022/09/28 03:45:57;;;;;;;5.68;2.03;;;;;;;;;;4978996;28;20100;-63
2022/09/28 03:48:25;;;;;;;8.77;2.00;;;;;;;;;;4996446;28;20104;-63
2022/09/28 03:50:55;;;;;;;8.38;1.85;;;;;;;;;;4996522;28;20049;-66
2022/09/28 03:53:23;;;;;;;4.03;1.60;;;;;;;;;;4996723;28;20050;-63
2022/09/28 03:55:52;;;;;;;3.00;1.40;;;;;;;;;;4996447;28;20445;-65
2022/09/28 03:58:20;;;;;;;6.32;1.50;;;;;;;;;;4996229;28;20398;-64
2022/09/28 04:00:47;;;;;;;5.85;1.55;;;;;;;;;;4996260;28;20049;-64
2022/09/28 04:03:14;;;;;;;4.00;1.65;;;;;;;;;;4996269;28;20026;-65
2022/09/28 04:05:51;;;;;;;4.00;1.38;;;;;;;;;;4996196;28;20022;-64
2022/09/28 04:08:19;;;;;;;4.95;1.63;;;;;;;;;;4996470;28;20097;-64
2022/09/28 04:10:46;;;;;;;20.13;4.10;;;;;;;;;;4996180;28;20028;-65
2022/09/28 04:13:13;;;;;;;10.35;2.20;;;;;;;;;;4996301;28;20449;-64
2022/09/28 04:15:41;;;;;;;6.30;2.35;;;;;;;;;;4978377;28;20058;-65
2022/09/28 04:18:12;;;;;;;5.85;1.75;;;;;;;;;;4995704;28;20042;-65
2022/09/28 04:20:42;;;;;;;6.60;2.17;;;;;;;;;;4995888;28;20478;-65
2022/09/28 04:23:09;;;;;;;3.23;1.30;;;;;;;;;;4978375;28;20494;-65
2022/09/28 04:25:36;;;;;;;8.40;1.45;;;;;;;;;;4995724;28;20103;-65
2022/09/28 04:30:48;;;;;;;4.38;1.50;;;;;;;;;;4995993;28;20096;-66
2022/09/28 04:33:15;;;;;;;4.47;1.40;;;;;;;;;;4995717;28;20022;-66
2022/09/28 04:35:42;;;;;;;5.03;1.80;;;;;;;;;;4995629;28;20034;-66
2022/09/28 04:38:10;;;;;;;5.30;1.10;;;;;;;;;;4995030;28;20533;-67
2022/09/28 04:40:37;;;;;;;2.35;1.20;;;;;;;;;;4995429;28;20042;-67
2022/09/28 04:43:04;;;;;;;4.93;1.38;;;;;;;;;;4995854;28;20026;-67
2022/09/28 04:45:31;;;;;;;3.03;1.38;;;;;;;;;;4995444;28;20023;-67
2022/09/28 04:47:58;;;;;;;3.30;1.20;;;;;;;;;;4995518;28;20097;-67
2022/09/28 04:50:26;;;;;;;2.47;1.25;;;;;;;;;;4977718;28;20027;-67
2022/09/28 04:52:53;;;;;;;2.50;1.15;;;;;;;;;;4977849;28;20096;-67
2022/09/28 04:55:20;;;;;;;3.80;1.30;;;;;;;;;;4995567;28;20500;-67
2022/09/28 04:57:47;;;;;;;4.50;1.05;;;;;;;;;;4995376;28;20596;-67
2022/09/28 05:00:15;;;;;;;3.42;1.20;;;;;;;;;;4995368;28;20037;-67
2022/09/28 05:02:44;;;;;;;3.97;1.02;;;;;;;;;;4995471;28;20050;-67
2022/09/28 05:05:11;;;;;;;5.45;1.25;;;;;;;;;;4995323;28;20049;-68
2022/09/28 05:07:40;;;;;;;8.45;1.80;;;;;;;;;;4995134;28;20022;-68
2022/09/28 05:10:07;;;;;;;5.95;1.80;;;;;;;;;;4995044;28;20022;-67
2022/09/28 05:12:34;;;;;;;8.02;2.22;;;;;;;;;;4995149;28;20142;-67
2022/09/28 05:15:02;;;;;;;5.32;1.73;;;;;;;;;;4995267;28;20022;-67
2022/09/28 05:17:30;;;;;;;7.82;1.92;;;;;;;;;;4994839;28;20390;-67
2022/09/28 05:19:57;;;;;;;8.88;1.98;;;;;;;;;;4994868;28;20088;-67
2022/09/28 05:22:24;;;;;;;10.25;2.40;;;;;;;;;;4994497;28;20441;-67
2022/09/28 05:24:53;;;;;;;7.35;1.88;;;;;;;;;;4994577;28;20394;-67
2022/09/28 05:27:21;;;;;;;10.98;2.72;;;;;;;;;;4994547;28;20383;-67
2022/09/28 05:29:48;;;;;;;7.20;1.75;;;;;;;;;;4994614;28;20025;-67
2022/09/28 05:32:15;;;;;;;11.00;2.30;;;;;;;;;;4994554;28;20437;-67
2022/09/28 05:34:42;;;;;;;9.30;2.42;;;;;;;;;;4994648;28;20018;-67
2022/09/28 05:37:10;;;;;;;7.00;1.67;;;;;;;;;;4994389;28;20133;-67
2022/09/28 05:39:37;;;;;;;7.38;1.75;;;;;;;;;;4994472;28;20023;-67
2022/09/28 05:42:04;;;;;;;10.57;1.92;;;;;;;;;;4994320;28;20026;-67
2022/09/28 05:44:31;;;;;;;9.75;2.13;;;;;;;;;;4994274;28;20097;-67
2022/09/28 05:46:58;;;;;;;8.68;1.83;;;;;;;;;;4994343;28;20098;-67
2022/09/28 05:49:28;;;;;;;9.20;2.30;;;;;;;;;;4994202;28;20041;-67
2022/09/28 05:51:55;;;;;;;6.88;1.35;;;;;;;;;;4976644;28;20031;-67
2022/09/28 05:54:22;;;;;;;6.78;1.50;;;;;;;;;;4976657;28;20027;-67
2022/09/28 05:56:49;;;;;;;8.93;1.77;;;;;;;;;;4976467;28;20037;-67
2022/09/28 05:59:16;;;;;;;7.32;2.05;;;;;;;;;;4994025;28;20097;-67
2022/09/28 06:01:43;;;;;;;10.90;1.73;;;;;;;;;;4993875;28;20034;-67
2022/09/28 06:04:10;;;;;;;6.55;1.50;;;;;;;;;;4994045;28;20031;-67
2022/09/28 06:06:38;;;;;;;4.40;1.60;;;;;;;;;;4993250;28;20019;-67
2022/09/28 06:09:05;;;;;;;9.02;2.00;;;;;;;;;;4993777;28;20033;-67
2022/09/28 06:11:32;;;;;;;9.30;2.15;;;;;;;;;;4993932;28;20081;-67
2022/09/28 06:13:59;;;;;;;8.60;2.50;;;;;;;;;;4993741;28;20363;-67
2022/09/28 06:16:26;;;;;;;7.90;1.45;;;;;;;;;;4993826;28;20027;-67
2022/09/28 06:18:53;;;;;;;8.90;2.03;;;;;;;;;;4993432;28;20388;-67
2022/09/28 06:21:20;;;;;;;9.27;1.90;;;;;;;;;;4993558;28;20030;-67
2022/09/28 06:23:48;;;;;;;6.60;1.60;;;;;;;;;;4993656;28;20077;-67
2022/09/28 06:26:15;;;;;;;7.28;2.10;;;;;;;;;;4993537;28;20372;-66
2022/09/28 06:28:42;;;;;;;8.32;1.83;;;;;;;;;;4993821;28;20427;-67
2022/09/28 06:31:09;;;;;;;9.30;2.30;;;;;;;;;;4976043;28;20034;-67
2022/09/28 06:33:37;;;;;;;7.88;1.95;;;;;;;;;;4993469;28;20509;-66
2022/09/28 06:36:04;;;;;;;8.85;1.60;;;;;;;;;;4993642;28;20084;-67
2022/09/28 06:38:31;;;;;;;10.82;2.10;;;;;;;;;;4993410;28;20077;-67
2022/09/28 06:40:59;;;;;;;11.85;1.60;;;;;;;;;;4993519;28;20470;-67
2022/09/28 06:43:26;;;;;;;6.30;1.60;;;;;;;;;;4993399;28;20018;-67
2022/09/28 06:45:54;;;;;;;5.40;1.15;;;;;;;;;;4993388;28;20034;-67
2022/09/28 06:48:21;;;;;;;9.85;2.20;;;;;;;;;;4993248;28;20387;-67
2022/09/28 06:50:50;;;;;;;5.57;1.40;;;;;;;;;;4993442;28;20470;-67
2022/09/28 06:53:18;;;;;;;5.72;1.55;;;;;;;;;;4993208;28;20014;-67
2022/09/28 06:55:48;;;;;;;6.68;1.85;;;;;;;;;;4993391;28;20031;-67
2022/09/28 06:58:19;;;;;;;8.30;1.73;;;;;;;;;;4993211;28;20386;-67
2022/09/28 07:00:47;;;;;;;7.72;1.67;;;;;;;;;;4993556;28;20034;-69
2022/09/28 07:03:15;;;;;;;7.90;1.67;;;;;;;;;;4996481;28;20508;-67
2022/09/28 07:05:44;;;;;;;5.75;1.70;;;;;;;;;;4979757;28;20457;-67
2022/09/28 07:08:11;;;;;;;12.27;1.77;;;;;;;;;;4979758;28;20091;-67
2022/09/28 07:10:45;;;;;;;7.22;1.08;;;;;;;;;;4997117;28;20335;-67
2022/09/28 07:13:13;;;;;;;8.05;1.60;;;;;;;;;;4997065;28;20026;-67
2022/09/28 07:15:42;;;;;;;7.90;1.50;;;;;;;;;;4996893;28;20101;-67
2022/09/28 07:18:10;;;;;;;7.25;1.75;;;;;;;;;;4996822;28;20042;-67
2022/09/28 07:20:38;;;;;;;11.63;2.30;;;;;;;;;;4997041;28;20030;-67
2022/09/28 07:23:09;;;;;;;9.75;1.73;;;;;;;;;;4997015;28;20076;-67
2022/09/28 07:25:37;;;;;;;6.90;1.60;;;;;;;;;;4979054;28;20042;-67
2022/09/28 07:28:04;;;;;;;5.28;1.42;;;;;;;;;;4996747;28;20379;-67
2022/09/28 07:30:33;;;;;;;5.97;1.83;;;;;;;;;;4996769;28;20022;-67
2022/09/28 07:33:00;;;;;;;9.15;1.30;;;;;;;;;;4996661;28;20042;-68
2022/09/28 07:35:28;;;;;;;7.15;1.75;;;;;;;;;;4996436;28;20446;-67
2022/09/28 07:37:59;;;;;;;9.52;2.20;;;;;;;;;;4996727;28;20031;-67
2022/09/28 07:43:19;;;;;;;8.77;2.00;;;;;;;;;;4997041;28;20088;-67
2022/09/28 07:45:47;;;;;;;7.07;1.63;;;;;;;;;;4996402;28;20033;-68
2022/09/28 07:48:15;;;;;;;8.40;2.03;;;;;;;;;;4996495;28;20109;-67
2022/09/28 07:50:42;;;;;;;7.93;1.80;;;;;;;;;;4996577;28;20014;-67
2022/09/28 07:53:10;;;;;;;10.20;2.15;;;;;;;;;;4978894;28;20050;-67
2022/09/28 07:55:37;;;;;;;7.28;1.88;;;;;;;;;;4996394;28;20030;-67
2022/09/28 07:58:04;;;;;;;5.60;1.67;;;;;;;;;;4996292;28;20042;-68
2022/09/28 08:00:32;;;;;;;4.95;1.52;;;;;;;;;;4996003;28;20037;-65
2022/09/28 08:03:02;;;;;;;6.50;1.42;;;;;;;;;;4996336;28;20395;-66
2022/09/28 08:05:30;;;;;;;4.72;1.60;;;;;;;;;;4996275;28;20501;-67
2022/09/28 08:07:58;;;;;;;5.90;1.40;;;;;;;;;;4996208;28;20015;-66
2022/09/28 08:10:26;;;;;;;6.45;1.65;;;;;;;;;;4994198;28;20027;-65
2022/09/28 08:12:59;;;;;;;7.63;2.10;;;;;;;;;;4976048;28;20019;-66
2022/09/28 08:15:26;;;;;;;7.22;2.58;;;;;;;;;;4994851;28;20073;-67
2022/09/28 08:17:54;;;;;;;5.72;2.60;;;;;;;;;;4995794;28;20045;-66
2022/09/28 08:23:07;;;;;;;9.50;3.60;;;;;;;;;;4995899;28;20046;-66
2022/09/28 08:25:37;;;;;;;12.20;2.92;;;;;;;;;;4977538;28;20030;-66
2022/09/28 08:28:08;;;;;;;11.35;2.75;;;;;;;;;;4995869;28;20022;-66
2022/09/28 08:30:35;;;;;;;6.97;3.53;;;;;;;;;;4995969;28;20029;-66
2022/09/28 08:33:03;;;;;;;9.00;3.40;;;;;;;;;;4978125;28;20061;-66
2022/09/28 08:35:30;;;;;;;7.10;2.88;;;;;;;;;;4995786;28;20069;-66
2022/09/28 08:37:58;;;;;;;5.35;2.65;;;;;;;;;;4995770;28;20501;-66
2022/09/28 08:40:26;;;;;;;9.27;2.80;;;;;;;;;;4978182;28;20041;-66
2022/09/28 08:42:54;;;;;;;8.48;2.47;;;;;;;;;;4995879;28;20019;-66
2022/09/28 08:45:29;;;;;;;7.75;2.30;;;;;;;;;;4994225;28;20470;-66
2022/09/28 08:50:47;;;;;;;8.32;2.58;;;;;;;;;;4993632;28;20034;-68
2022/09/28 08:53:23;;;;;;;9.40;2.30;;;;;;;;;;4993570;28;20057;-66
2022/09/28 08:55:51;;;;;;;6.65;2.03;;;;;;;;;;4993422;28;20124;-66
2022/09/28 08:58:22;;;;;;;7.45;2.17;;;;;;;;;;4993324;28;20340;-67
2022/09/28 09:00:50;;;;;;;5.65;1.88;;;;;;;;;;4994777;28;20026;-66
2022/09/28 09:03:19;;;;;;;7.03;1.85;;;;;;;;;;4994433;28;20076;-70
2022/09/28 09:06:05;;;;;;;6.10;1.88;;;;;;;;;;4995204;28;20026;-68
2022/09/28 09:08:48;;;;;;;6.30;2.22;;;;;;;;;;4995330;28;20018;-69
2022/09/28 09:11:27;;;;;;;8.38;2.58;;;;;;;;;;4977647;28;20029;-68
2022/09/28 09:14:03;;;;;;;6.00;2.50;;;;;;;;;;4995362;28;20076;-69
2022/09/28 09:16:30;;;;;;;7.53;2.40;;;;;;;;;;4995051;28;20031;-68
2022/09/28 09:19:00;;;;;;;7.07;2.42;;;;;;;;;;4994717;28;20057;-67
2022/09/28 09:21:30;;;;;;;8.75;2.40;;;;;;;;;;4977414;28;20030;-69
2022/09/28 09:24:02;;;;;;;6.55;2.13;;;;;;;;;;4994912;28;20553;-68
2022/09/28 09:26:37;;;;;;;7.60;2.25;;;;;;;;;;4994750;28;20371;-65
2022/09/28 09:29:13;;;;;;;8.45;2.50;;;;;;;;;;4994832;28;20018;-66
2022/09/28 09:31:40;;;;;;;6.65;2.30;;;;;;;;;;4995002;28;20025;-65
2022/09/28 09:34:07;;;;;;;10.15;2.60;;;;;;;;;;4977093;28;20049;-66
2022/09/28 09:36:50;;;;;;;7.55;2.55;;;;;;;;;;4994731;28;20124;-66
2022/09/28 09:39:31;;;;;;;7.70;2.88;;;;;;;;;;4994859;28;20023;-66
2022/09/28 09:42:04;;;;;;;10.00;2.63;;;;;;;;;;4977057;28;20042;-66
2022/09/28 09:44:51;;;;;;;7.93;3.33;;;;;;;;;;4976971;28;20572;-69
2022/09/28 09:47:25;;;;;;;10.15;3.30;;;;;;;;;;4967935;28;20043;-67
2022/09/28 09:50:05;;;;;;;7.63;2.80;;;;;;;;;;4994753;28;20490;-66
2022/09/28 09:52:43;;;;;;;11.52;4.10;;;;;;;;;;4994308;28;20390;-66
2022/09/28 09:55:36;;;;;;;9.63;5.55;;;;;;;;;;4994247;28;20022;-67
2022/09/28 09:58:21;;;;;;;6.88;3.45;;;;;;;;;;4990411;28;20061;-67
2022/09/28 10:00:50;;;;;;;8.52;2.95;;;;;;;;;;4994175;28;20033;-66
2022/09/28 10:03:38;;;;;;;8.80;2.75;;;;;;;;;;4976441;28;20387;-67
2022/09/28 10:06:09;;;;;;;8.10;2.65;;;;;;;;;;4993912;28;20033;-68
2022/09/28 10:09:02;;;;;;;11.68;2.90;;;;;;;;;;4994178;28;20101;-67
2022/09/28 10:11:35;;;;;;;10.00;2.83;;;;;;;;;;4990097;28;20161;-68
2022/09/28 10:14:07;;;;;;;9.10;2.53;;;;;;;;;;4994005;28;20034;-68
2022/09/28 10:16:34;;;;;;;6.03;2.42;;;;;;;;;;4994169;28;20387;-68
2022/09/28 10:19:01;;;;;;;6.63;2.20;;;;;;;;;;4993756;28;20410;-69
2022/09/28 10:21:29;;;;;;;8.02;2.30;;;;;;;;;;4993959;28;20022;-69
2022/09/28 10:23:58;;;;;;;7.03;2.00;;;;;;;;;;4993898;28;20026;-69
2022/09/28 10:26:28;;;;;;;6.97;2.50;;;;;;;;;;4976347;28;20034;-69
2022/09/28 10:29:00;;;;;;;9.50;2.75;;;;;;;;;;4993781;28;20036;-69
2022/09/28 10:31:39;;;;;;;6.45;2.55;;;;;;;;;;4976260;28;20034;-69
2022/09/28 10:34:07;;;;;;;9.07;2.65;;;;;;;;;;4993689;28;20077;-69
2022/09/28 10:36:43;;;;;;;6.70;1.70;;;;;;;;;;4975431;28;20034;-70
2022/09/28 10:39:29;;;;;;;5.22;1.60;;;;;;;;;;4993743;28;20026;-70
2022/09/28 10:41:58;;;;;;;6.22;2.30;;;;;;;;;;4976151;28;20054;-70
2022/09/28 10:44:26;;;;;;;5.15;1.52;;;;;;;;;;4993536;28;20460;-69
2022/09/28 10:46:57;;;;;;;4.88;1.58;;;;;;;;;;4993804;28;20030;-68
2022/09/28 10:49:27;;;;;;;2.13;1.42;;;;;;;;;;4993586;28;20022;-69
2022/09/28 10:51:55;;;;;;;1.70;1.17;;;;;;;;;;4993648;28;20023;-69
2022/09/28 10:54:24;;;;;;;3.13;1.40;;;;;;;;;;4993527;28;20022;-69
2022/09/28 10:56:52;;;;;;;3.03;1.20;;;;;;;;;;4993672;28;20054;-69
2022/09/28 10:59:39;;;;;;;2.38;1.10;;;;;;;;;;4993476;28;20069;-70
2022/09/28 11:02:18;;;;;;;3.70;1.20;;;;;;;;;;4993611;28;20033;-69
2022/09/28 11:04:50;;;;;;;2.08;0.93;;;;;;;;;;4993353;28;20034;-70
2022/09/28 11:07:19;;;;;;;1.88;0.90;;;;;;;;;;4993450;28;20390;-70
2022/09/28 11:09:49;;;;;;;3.35;1.10;;;;;;;;;;4975964;28;20054;-70
2022/09/28 11:12:18;;;;;;;2.88;1.30;;;;;;;;;;4993444;28;20026;-69
2022/09/28 11:14:51;;;;;;;1.90;1.30;;;;;;;;;;4976471;28;20031;-69
2022/09/28 11:17:32;;;;;;;2.63;1.60;;;;;;;;;;4993455;28;20022;-69
2022/09/28 11:20:00;;;;;;;2.55;1.45;;;;;;;;;;4993740;28;20031;-69
2022/09/28 11:22:35;;;;;;;1.98;1.38;;;;;;;;;;4993310;28;20030;-69
2022/09/28 11:25:18;;;;;;;3.15;1.25;;;;;;;;;;4975781;28;20069;-69
2022/09/28 11:27:51;;;;;;;1.98;0.90;;;;;;;;;;4993471;28;20494;-69
2022/09/28 11:30:24;;;;;;;1.98;1.15;;;;;;;;;;4993154;28;20530;-69
2022/09/28 11:32:53;;;;;;;3.20;0.90;;;;;;;;;;4993429;28;20029;-69
2022/09/28 11:35:25;;;;;;;2.70;0.90;;;;;;;;;;4993219;28;20454;-69
2022/09/28 11:38:01;;;;;;;1.88;1.05;;;;;;;;;;4993189;28;20026;-69
2022/09/28 11:40:53;;;;;;;3.38;1.33;;;;;;;;;;4993181;28;20030;-69
2022/09/28 11:43:32;;;;;;;2.67;1.25;;;;;;;;;;4993366;28;20105;-69
2022/09/28 11:45:59;;;;;;;4.00;1.13;;;;;;;;;;4993269;28;20027;-69
2022/09/28 11:48:34;;;;;;;3.03;1.25;;;;;;;;;;4995105;28;20019;-69
2022/09/28 11:51:04;;;;;;;2.75;1.00;;;;;;;;;;4979261;28;20110;-69
2022/09/28 11:53:42;;;;;;;4.38;1.00;;;;;;;;;;4996607;28;20027;-69
2022/09/28 11:56:25;;;;;;;2.60;0.90;;;;;;;;;;4979094;28;20474;-69
2022/09/28 11:58:54;;;;;;;1.67;0.88;;;;;;;;;;4978947;28;20036;-69
2022/09/28 12:01:34;;;;;;;1.75;0.70;;;;;;;;;;4996460;28;20057;-69
2022/09/28 12:04:09;;;;;;;1.75;0.93;;;;;;;;;;4996700;28;20030;-69
2022/09/28 12:06:44;;;;;;;1.38;0.50;;;;;;;;;;4996461;28;20022;-69
2022/09/28 12:09:19;;;;;;;1.15;0.75;;;;;;;;;;4996351;28;20050;-69
2022/09/28 12:11:49;;;;;;;1.90;1.08;;;;;;;;;;4996420;28;20019;-69
2022/09/28 12:14:20;;;;;;;2.00;0.90;;;;;;;;;;4996284;28;20023;-69
2022/09/28 12:17:10;;;;;;;2.00;1.10;;;;;;;;;;4996342;28;20022;-69
2022/09/28 12:19:44;;;;;;;1.20;0.80;;;;;;;;;;4966702;28;20042;-70
2022/09/28 12:22:18;;;;;;;2.33;0.80;;;;;;;;;;4977019;28;20094;-69
2022/09/28 12:24:54;;;;;;;1.35;0.75;;;;;;;;;;4976862;28;20030;-69
2022/09/28 12:27:24;;;;;;;2.08;1.00;;;;;;;;;;4976606;28;20023;-69
2022/09/28 12:29:57;;;;;;;0.63;0.60;;;;;;;;;;4976732;28;20022;-69
2022/09/28 12:32:42;;;;;;;0.60;0.52;;;;;;;;;;4976772;28;20307;-69
2022/09/28 12:35:14;;;;;;;1.77;0.60;;;;;;;;;;4976571;28;20559;-69
2022/09/28 12:37:48;;;;;;;1.90;0.70;;;;;;;;;;4976494;28;20027;-69
2022/09/28 12:40:24;;;;;;;1.75;0.80;;;;;;;;;;4975084;28;20065;-69
2022/09/28 12:42:59;;;;;;;1.75;0.63;;;;;;;;;;4976376;28;20029;-70
2022/09/28 12:45:29;;;;;;;2.00;0.60;;;;;;;;;;4975588;28;20046;-69
2022/09/28 12:48:16;;;;;;;1.70;0.60;;;;;;;;;;4974566;28;20030;-70
2022/09/28 12:51:04;;;;;;;1.92;0.70;;;;;;;;;;4973694;28;20277;-70
2022/09/28 12:54:07;;;;;;;2.22;0.60;;;;;;;;;;4975884;28;20054;-70
2022/09/28 12:56:34;;;;;;;2.10;0.80;;;;;;;;;;4935626;29;20040;-69
2022/09/28 12:59:01;;;;;;;1.65;0.50;;;;;;;;;;4967815;28;20118;-70
2022/09/28 13:01:39;;;;;;;0.80;0.57;;;;;;;;;;4974434;28;20455;-69
2022/09/28 13:04:22;;;;;;;1.52;0.50;;;;;;;;;;4974642;28;20033;-69
2022/09/28 13:06:59;;;;;;;1.33;0.60;;;;;;;;;;4975943;28;20038;-69
2022/09/28 13:09:34;;;;;;;0.93;0.63;;;;;;;;;;4975034;28;20031;-69
2022/09/28 13:12:05;;;;;;;2.13;0.60;;;;;;;;;;4974441;28;20483;-69
2022/09/28 13:14:32;;;;;;;;;;;;;;;;;;4974817;28;20507;-69
2022/09/28 13:17:02;;;;;;;1.30;0.65;;;;;;;;;;4975913;28;19945;-69
2022/09/28 13:19:41;;;;;;;0.90;0.60;;;;;;;;;;4973983;28;20078;-69
2022/09/28 13:22:27;;;;;;;0.82;0.52;;;;;;;;;;4975467;28;20030;-70
2022/09/28 13:24:55;;;;;;;1.50;0.50;;;;;;;;;;4974515;28;20045;-69
2022/09/28 13:27:28;;;;;;;1.08;0.60;;;;;;;;;;4973574;28;20023;-70
2022/09/28 13:29:58;;;;;;;1.50;0.50;;;;;;;;;;4973831;28;20027;-70
2022/09/28 13:32:29;;;;;;;0.85;0.43;;;;;;;;;;4972099;28;20027;-70
2022/09/28 13:34:56;;;;;;;1.60;0.50;;;;;;;;;;4973596;28;20446;-70
2022/09/28 13:37:25;;;;;;;0.98;0.47;;;;;;;;;;4973417;28;20435;-69
2022/09/28 13:39:55;;;;;;;1.13;0.60;;;;;;;;;;4972466;28;20027;-69
2022/09/28 13:42:30;;;;;;;1.08;0.50;;;;;;;;;;4973922;28;20073;-69
2022/09/28 13:45:16;;;;;;;1.17;0.50;;;;;;;;;;4973660;28;20114;-69
2022/09/28 13:48:10;;;;;;;1.63;0.60;;;;;;;;;;4975108;28;20074;-69
2022/09/28 13:50:43;;;;;;;1.85;0.65;;;;;;;;;;4973475;28;20115;-70
2022/09/28 13:53:18;;;;;;;0.65;0.50;;;;;;;;;;4975237;28;20149;-70
2022/09/28 13:55:53;;;;;;;2.33;0.63;;;;;;;;;;4973457;28;20034;-69
2022/09/28 13:58:33;;;;;;;2.15;0.50;;;;;;;;;;4973584;28;20039;-69
2022/09/28 14:01:04;;;;;;;1.60;0.60;;;;;;;;;;4974870;28;20019;-69
2022/09/28 14:03:35;;;;;;;1.45;0.50;;;;;;;;;;4974880;28;20030;-70
2022/09/28 14:06:10;;;;;;;1.67;0.50;;;;;;;;;;4974764;28;20027;-69
2022/09/28 14:08:45;;;;;;;0.98;0.50;;;;;;;;;;4974994;28;20023;-69
2022/09/28 14:11:27;;;;;;;0.73;0.50;;;;;;;;;;4974083;28;20023;-69
2022/09/28 14:14:10;;;;;;;2.65;0.60;;;;;;;;;;4974734;28;20027;-69
2022/09/28 14:16:38;;;;;;;0.50;0.40;;;;;;;;;;4974596;28;20022;-69
2022/09/28 14:19:10;;;;;;;0.70;0.47;;;;;;;;;;4988548;28;20524;-69
2022/09/28 14:21:40;;;;;;;0.75;0.50;;;;;;;;;;4993890;28;20529;-69
2022/09/28 14:24:15;;;;;;;3.72;0.85;;;;;;;;;;4993978;28;20101;-69
2022/09/28 14:27:07;;;;;;;0.50;0.45;;;;;;;;;;4993866;28;20034;-69
2022/09/28 14:29:36;;;;;;;0.47;0.20;;;;;;;;;;4993997;28;20022;-69
2022/09/28 14:32:09;;;;;;;0.95;0.38;;;;;;;;;;4993827;28;20019;-69
2022/09/28 14:34:38;;;;;;;1.42;0.50;;;;;;;;;;4993792;28;20478;-69
2022/09/28 14:43:27;;;;;;;0.75;0.40;;;;;;;;;;4994014;28;20084;-69
2022/09/28 14:46:18;;;;;;;0.60;0.30;;;;;;;;;;4940950;28;20142;-69
2022/09/28 14:49:02;;;;;;;0.60;0.40;;;;;;;;;;4993634;28;20496;-70
2022/09/28 14:51:29;;;;;;;0.60;0.43;;;;;;;;;;4993850;28;20036;-69
2022/09/28 14:54:01;;;;;;;1.05;0.40;;;;;;;;;;4993650;28;20089;-69
2022/09/28 14:56:31;;;;;;;1.67;0.70;;;;;;;;;;4976087;28;20019;-69
2022/09/28 14:58:58;;;;;;;0.50;0.30;;;;;;;;;;4993568;28;20023;-70
2022/09/28 15:01:26;;;;;;;0.82;0.30;;;;;;;;;;4976090;28;20133;-69
2022/09/28 15:03:59;;;;;;;0.40;0.40;;;;;;;;;;4976018;28;20029;-69
2022/09/28 15:06:27;;;;;;;1.20;0.30;;;;;;;;;;4993475;28;20482;-69
2022/09/28 15:08:54;;;;;;;0.45;0.30;;;;;;;;;;4993579;28;20022;-69
2022/09/28 15:11:23;;;;;;;1.17;0.40;;;;;;;;;;4976007;28;20026;-69
2022/09/28 15:14:01;;;;;;;0.60;0.22;;;;;;;;;;4976013;28;20029;-69
2022/09/28 15:16:30;;;;;;;0.47;0.22;;;;;;;;;;4993576;28;20033;-69
2022/09/28 15:18:57;;;;;;;0.65;0.35;;;;;;;;;;4993188;28;20050;-69
2022/09/28 15:21:24;;;;;;;1.33;0.65;;;;;;;;;;4993457;28;20103;-69
2022/09/28 15:23:51;;;;;;;2.75;0.50;;;;;;;;;;4995934;28;20425;-70
2022/09/28 15:26:26;;;;;;;2.17;0.40;;;;;;;;;;4997319;28;20027;-69